Time;durP1;ratioP1;P1;durP2;ratioP2;P2;SDS_P1;SDS_P2;PMS_P1;PMS_P2;Temp;Humidity;BMP_temperature;BMP_pressure;BME280_temperature;BME280_humidity;BME280_pressure;Samples;Min_cycle;Max_cycle;Signal;HPM_P1;HPM_P2
2022/09/07 00:01:08;;;;;;;29.77;22.58;;;;;;;;;;5035214;28;20147;-70
2022/09/07 00:03:34;;;;;;;27.02;21.95;;;;;;;;;;5033261;28;20044;-70
2022/09/07 00:06:04;;;;;;;26.45;22.48;;;;;;;;;;5039350;28;20174;-70
2022/09/07 00:08:30;;;;;;;30.35;23.50;;;;;;;;;;5039082;28;20120;-70
2022/09/07 00:10:58;;;;;;;26.08;23.00;;;;;;;;;;5042052;28;20083;-70
2022/09/07 00:13:25;;;;;;;26.88;24.05;;;;;;;;;;5036554;28;20059;-69
2022/09/07 00:15:52;;;;;;;30.13;23.98;;;;;;;;;;5039863;28;21960;-70
2022/09/07 00:18:18;;;;;;;30.73;24.85;;;;;;;;;;5036963;28;20075;-71
2022/09/07 00:20:44;;;;;;;27.88;24.40;;;;;;;;;;5032927;28;20037;-71
2022/09/07 00:23:10;;;;;;;31.83;24.35;;;;;;;;;;5035769;28;20049;-70
2022/09/07 00:25:38;;;;;;;25.85;22.90;;;;;;;;;;5033466;28;20356;-70
2022/09/07 00:28:04;;;;;;;28.17;23.83;;;;;;;;;;5033130;28;20472;-70
2022/09/07 00:30:30;;;;;;;27.15;23.88;;;;;;;;;;5033235;28;20036;-70
2022/09/07 00:32:57;;;;;;;25.83;22.48;;;;;;;;;;5037359;28;20067;-70
2022/09/07 00:35:23;;;;;;;31.25;24.30;;;;;;;;;;5034817;28;20041;-70
2022/09/07 00:37:49;;;;;;;26.02;22.23;;;;;;;;;;5038908;28;20122;-70
2022/09/07 00:40:15;;;;;;;25.27;20.88;;;;;;;;;;5038926;28;20290;-70
2022/09/07 00:42:41;;;;;;;26.50;19.55;;;;;;;;;;5035464;28;20155;-70
2022/09/07 00:45:19;;;;;;;22.75;18.70;;;;;;;;;;5018887;28;20103;-70
2022/09/07 00:47:49;;;;;;;24.25;20.25;;;;;;;;;;5031587;28;20076;-70
2022/09/07 00:50:19;;;;;;;24.80;19.95;;;;;;;;;;5034669;28;20042;-70
2022/09/07 00:52:48;;;;;;;24.85;20.00;;;;;;;;;;5034815;28;20041;-70
2022/09/07 00:55:14;;;;;;;24.77;19.77;;;;;;;;;;5033067;28;20476;-70
2022/09/07 00:57:43;;;;;;;22.40;18.08;;;;;;;;;;5035481;28;20048;-71
2022/09/07 01:00:09;;;;;;;22.23;16.77;;;;;;;;;;5030159;28;20512;-69
2022/09/07 01:02:35;;;;;;;20.65;14.93;;;;;;;;;;5034908;28;20045;-69
2022/09/07 01:05:06;;;;;;;20.25;12.80;;;;;;;;;;5038473;28;20086;-70
2022/09/07 01:07:32;;;;;;;19.77;10.52;;;;;;;;;;5033236;28;20053;-70
2022/09/07 01:09:58;;;;;;;18.52;10.20;;;;;;;;;;5037089;28;20053;-70
2022/09/07 01:12:25;;;;;;;16.55;10.15;;;;;;;;;;5035133;28;20136;-70
2022/09/07 01:14:51;;;;;;;15.30;9.25;;;;;;;;;;5035284;28;20045;-70
2022/09/07 01:17:22;;;;;;;16.88;9.02;;;;;;;;;;5036871;28;20128;-70
2022/09/07 01:20:04;;;;;;;14.00;7.90;;;;;;;;;;5032952;28;20067;-70
2022/09/07 01:22:56;;;;;;;14.88;6.22;;;;;;;;;;5035439;28;20142;-70
2022/09/07 01:25:36;;;;;;;14.55;5.30;;;;;;;;;;5036776;28;20412;-70
2022/09/07 01:28:13;;;;;;;15.77;5.00;;;;;;;;;;5044429;28;20053;-70
2022/09/07 01:30:41;;;;;;;14.50;3.72;;;;;;;;;;5048438;28;20492;-70
2022/09/07 01:33:27;;;;;;;9.65;3.33;;;;;;;;;;5036386;28;20052;-70
2022/09/07 01:35:59;;;;;;;8.70;2.58;;;;;;;;;;5036572;28;20063;-70
2022/09/07 01:38:31;;;;;;;19.17;3.95;;;;;;;;;;5036495;28;20053;-70
2022/09/07 01:41:02;;;;;;;8.77;2.70;;;;;;;;;;5030739;28;20168;-69
2022/09/07 01:43:34;;;;;;;18.10;3.38;;;;;;;;;;5041065;28;20246;-69
2022/09/07 01:46:02;;;;;;;11.93;3.05;;;;;;;;;;5047016;28;20055;-69
2022/09/07 01:48:31;;;;;;;10.32;3.03;;;;;;;;;;5029422;28;20049;-69
2022/09/07 01:51:00;;;;;;;16.73;4.07;;;;;;;;;;5041803;28;20029;-69
2022/09/07 01:53:30;;;;;;;13.70;2.97;;;;;;;;;;5034366;28;20075;-69
2022/09/07 01:56:05;;;;;;;19.55;3.72;;;;;;;;;;5037969;28;20053;-69
2022/09/07 01:58:34;;;;;;;17.95;3.10;;;;;;;;;;5039383;28;20125;-69
2022/09/07 02:01:09;;;;;;;20.02;5.95;;;;;;;;;;5030689;28;20053;-69
2022/09/07 02:03:40;;;;;;;16.52;8.85;;;;;;;;;;5035391;28;20075;-68
2022/09/07 02:06:11;;;;;;;19.15;7.85;;;;;;;;;;5037821;28;20171;-69
2022/09/07 02:08:42;;;;;;;20.92;8.90;;;;;;;;;;5042576;28;20322;-69
2022/09/07 02:11:10;;;;;;;54.10;11.02;;;;;;;;;;5034352;28;20083;-68
2022/09/07 02:13:40;;;;;;;16.95;7.40;;;;;;;;;;5050293;28;20050;-69
2022/09/07 02:16:10;;;;;;;10.13;4.65;;;;;;;;;;5032815;28;20546;-68
2022/09/07 02:18:41;;;;;;;10.07;5.10;;;;;;;;;;5036789;28;20057;-69
2022/09/07 02:21:08;;;;;;;10.52;4.88;;;;;;;;;;5034593;28;21486;-69
2022/09/07 02:23:39;;;;;;;8.15;4.35;;;;;;;;;;5043613;28;20429;-68
2022/09/07 02:26:09;;;;;;;13.68;5.10;;;;;;;;;;5040420;28;20094;-69
2022/09/07 02:28:37;;;;;;;12.20;4.28;;;;;;;;;;5037623;28;20052;-69
2022/09/07 02:31:04;;;;;;;7.72;4.18;;;;;;;;;;5034938;28;20048;-69
2022/09/07 02:33:30;;;;;;;8.82;4.45;;;;;;;;;;5035065;28;20128;-69
2022/09/07 02:35:56;;;;;;;12.32;4.18;;;;;;;;;;5037855;28;20045;-69
2022/09/07 02:38:22;;;;;;;9.32;3.50;;;;;;;;;;5035455;28;20049;-69
2022/09/07 02:40:51;;;;;;;7.25;2.90;;;;;;;;;;5036421;28;20064;-69
2022/09/07 02:43:18;;;;;;;6.55;3.03;;;;;;;;;;5039482;28;20082;-69
2022/09/07 02:46:01;;;;;;;5.90;2.65;;;;;;;;;;5035763;28;20041;-69
2022/09/07 02:48:50;;;;;;;5.85;2.28;;;;;;;;;;5042099;28;20072;-69
2022/09/07 02:51:25;;;;;;;6.63;2.60;;;;;;;;;;5038104;28;20052;-69
2022/09/07 02:54:00;;;;;;;5.45;1.98;;;;;;;;;;5036246;28;20084;-69
2022/09/07 02:56:30;;;;;;;5.70;2.28;;;;;;;;;;5033722;28;20049;-69
2022/09/07 02:59:14;;;;;;;5.65;2.20;;;;;;;;;;5033956;28;20045;-66
2022/09/07 03:01:44;;;;;;;5.53;2.50;;;;;;;;;;5036534;28;20378;-69
2022/09/07 03:04:11;;;;;;;5.88;2.85;;;;;;;;;;5033462;28;20124;-69
2022/09/07 03:06:40;;;;;;;7.70;2.67;;;;;;;;;;5039024;28;20167;-69
2022/09/07 03:09:09;;;;;;;8.68;2.75;;;;;;;;;;5041643;28;20349;-69
2022/09/07 03:11:36;;;;;;;7.22;2.67;;;;;;;;;;5033867;28;20076;-69
2022/09/07 03:14:17;;;;;;;7.10;2.95;;;;;;;;;;5036435;28;20924;-69
2022/09/07 03:16:43;;;;;;;8.80;3.15;;;;;;;;;;5032892;28;20045;-69
2022/09/07 03:19:10;;;;;;;6.43;2.80;;;;;;;;;;5038351;28;20133;-69
2022/09/07 03:21:36;;;;;;;9.15;2.95;;;;;;;;;;5040727;28;20078;-69
2022/09/07 03:24:02;;;;;;;8.18;3.42;;;;;;;;;;5035698;28;20071;-69
2022/09/07 03:26:28;;;;;;;15.27;3.92;;;;;;;;;;5046029;28;20053;-69
2022/09/07 03:28:54;;;;;;;9.18;3.53;;;;;;;;;;5037661;28;20274;-69
2022/09/07 03:31:20;;;;;;;7.22;4.00;;;;;;;;;;5040597;28;20127;-69
2022/09/07 03:33:47;;;;;;;8.35;3.55;;;;;;;;;;5040070;28;20052;-69
2022/09/07 03:36:13;;;;;;;9.82;3.75;;;;;;;;;;5031936;28;20045;-69
2022/09/07 03:38:39;;;;;;;5.50;2.92;;;;;;;;;;5031023;28;20068;-69
2022/09/07 03:41:06;;;;;;;8.65;3.55;;;;;;;;;;5030139;28;20032;-69
2022/09/07 03:43:33;;;;;;;6.97;2.95;;;;;;;;;;5040528;28;20044;-69
2022/09/07 03:46:01;;;;;;;8.35;2.80;;;;;;;;;;5035575;28;20116;-69
2022/09/07 03:48:29;;;;;;;8.85;2.55;;;;;;;;;;5034154;28;20126;-69
2022/09/07 03:50:57;;;;;;;6.35;2.55;;;;;;;;;;5039583;28;20049;-69
2022/09/07 03:53:23;;;;;;;6.72;2.35;;;;;;;;;;5031227;28;20123;-69
2022/09/07 03:55:56;;;;;;;6.50;2.30;;;;;;;;;;5030434;28;20045;-69
2022/09/07 03:58:22;;;;;;;10.63;3.05;;;;;;;;;;5031684;28;20041;-69
2022/09/07 04:00:48;;;;;;;12.57;3.20;;;;;;;;;;5034325;28;20139;-69
2022/09/07 04:03:15;;;;;;;9.57;3.33;;;;;;;;;;5034900;28;20055;-69
2022/09/07 04:05:41;;;;;;;8.10;3.17;;;;;;;;;;5032410;28;20045;-69
2022/09/07 04:08:07;;;;;;;12.27;3.30;;;;;;;;;;5029017;28;20041;-69
2022/09/07 04:10:37;;;;;;;11.82;3.15;;;;;;;;;;5039184;28;20460;-69
2022/09/07 04:13:03;;;;;;;9.73;3.75;;;;;;;;;;5040415;28;20049;-69
2022/09/07 04:15:29;;;;;;;10.35;3.83;;;;;;;;;;5037017;28;20380;-69
2022/09/07 04:17:56;;;;;;;11.57;3.20;;;;;;;;;;5035830;28;20745;-69
2022/09/07 04:20:22;;;;;;;8.73;3.42;;;;;;;;;;5037615;28;20045;-69
2022/09/07 04:22:48;;;;;;;10.93;2.97;;;;;;;;;;5035922;28;20078;-69
2022/09/07 04:25:15;;;;;;;10.77;3.38;;;;;;;;;;5042711;28;20120;-69
2022/09/07 04:27:41;;;;;;;9.85;3.55;;;;;;;;;;5037237;28;20500;-69
2022/09/07 04:30:07;;;;;;;8.35;3.42;;;;;;;;;;5064435;28;20404;-69
2022/09/07 04:32:34;;;;;;;15.20;4.05;;;;;;;;;;5042053;28;20083;-69
2022/09/07 04:35:00;;;;;;;14.00;3.25;;;;;;;;;;5038894;28;20109;-69
2022/09/07 04:37:26;;;;;;;13.20;3.33;;;;;;;;;;5037157;28;20052;-69
2022/09/07 04:39:52;;;;;;;13.05;4.07;;;;;;;;;;5031511;28;20051;-69
2022/09/07 04:42:18;;;;;;;15.68;4.45;;;;;;;;;;5028072;28;20054;-69
2022/09/07 04:44:44;;;;;;;10.63;3.70;;;;;;;;;;5030730;28;20453;-69
2022/09/07 04:47:10;;;;;;;12.85;4.07;;;;;;;;;;5035042;28;20041;-69
2022/09/07 04:49:36;;;;;;;19.58;4.68;;;;;;;;;;5039545;28;20575;-69
2022/09/07 04:52:03;;;;;;;15.52;3.90;;;;;;;;;;5042524;28;20425;-69
2022/09/07 04:54:29;;;;;;;17.70;3.67;;;;;;;;;;5032843;28;20062;-66
2022/09/07 04:56:56;;;;;;;12.27;4.95;;;;;;;;;;5038209;28;20527;-65
2022/09/07 04:59:22;;;;;;;17.13;4.95;;;;;;;;;;5040672;28;20037;-65
2022/09/07 05:01:48;;;;;;;22.85;4.72;;;;;;;;;;5039490;28;20126;-65
2022/09/07 05:04:14;;;;;;;10.00;4.38;;;;;;;;;;5015676;28;20053;-64
2022/09/07 05:06:40;;;;;;;10.57;4.18;;;;;;;;;;5045189;28;20044;-65
2022/09/07 05:09:06;;;;;;;13.77;4.40;;;;;;;;;;5039682;28;20044;-65
2022/09/07 05:11:32;;;;;;;20.45;5.40;;;;;;;;;;5038460;28;20162;-65
2022/09/07 05:14:00;;;;;;;21.45;4.97;;;;;;;;;;5038624;28;20069;-65
2022/09/07 05:16:26;;;;;;;14.27;5.45;;;;;;;;;;5038665;28;20055;-65
2022/09/07 05:18:54;;;;;;;10.05;4.43;;;;;;;;;;5040018;28;20393;-65
2022/09/07 05:21:22;;;;;;;19.55;5.85;;;;;;;;;;5042205;28;20508;-65
2022/09/07 05:23:49;;;;;;;14.60;5.70;;;;;;;;;;5040987;28;20032;-65
2022/09/07 05:26:16;;;;;;;14.65;5.13;;;;;;;;;;5042215;28;20049;-66
2022/09/07 05:28:43;;;;;;;17.90;5.30;;;;;;;;;;5039573;28;20044;-65
2022/09/07 05:31:10;;;;;;;17.60;6.00;;;;;;;;;;5046645;28;20087;-65
2022/09/07 05:33:36;;;;;;;19.52;5.63;;;;;;;;;;5029675;28;20076;-65
2022/09/07 05:36:04;;;;;;;14.57;5.60;;;;;;;;;;5061176;28;20499;-65
2022/09/07 05:38:30;;;;;;;13.73;5.70;;;;;;;;;;5060811;28;20088;-65
2022/09/07 05:40:57;;;;;;;11.77;5.28;;;;;;;;;;5067084;28;20048;-65
2022/09/07 05:43:23;;;;;;;13.13;6.50;;;;;;;;;;5062632;28;20108;-65
2022/09/07 05:45:49;;;;;;;13.75;5.63;;;;;;;;;;5063894;28;20045;-68
2022/09/07 05:48:15;;;;;;;8.68;5.75;;;;;;;;;;5061518;28;20047;-67
2022/09/07 05:50:49;;;;;;;11.88;6.10;;;;;;;;;;5066891;28;20045;-68
2022/09/07 05:53:16;;;;;;;11.93;6.50;;;;;;;;;;5066892;28;20144;-68
2022/09/07 05:55:42;;;;;;;13.18;6.75;;;;;;;;;;5056063;28;20061;-68
2022/09/07 05:58:09;;;;;;;9.43;5.90;;;;;;;;;;5050495;28;20044;-68
2022/09/07 06:00:35;;;;;;;12.43;5.63;;;;;;;;;;5055989;28;20088;-68
2022/09/07 06:03:01;;;;;;;10.23;6.85;;;;;;;;;;5049841;28;20057;-68
2022/09/07 06:05:27;;;;;;;10.18;6.07;;;;;;;;;;5042275;28;20079;-67
2022/09/07 06:07:53;;;;;;;8.25;6.13;;;;;;;;;;5041313;28;20548;-67
2022/09/07 06:10:19;;;;;;;10.40;6.63;;;;;;;;;;5043172;28;20063;-67
2022/09/07 06:12:45;;;;;;;10.35;6.30;;;;;;;;;;5030865;28;20076;-68
2022/09/07 06:15:12;;;;;;;12.43;6.95;;;;;;;;;;5050303;28;20496;-68
2022/09/07 06:17:38;;;;;;;10.15;6.80;;;;;;;;;;5041293;28;20504;-67
2022/09/07 06:20:05;;;;;;;7.78;6.38;;;;;;;;;;5048837;28;20569;-68
2022/09/07 06:22:34;;;;;;;9.32;6.45;;;;;;;;;;5031164;28;20041;-67
2022/09/07 06:25:00;;;;;;;8.15;6.13;;;;;;;;;;5044075;28;20041;-68
2022/09/07 06:27:26;;;;;;;9.82;6.93;;;;;;;;;;5044942;28;20094;-68
2022/09/07 06:29:53;;;;;;;9.70;6.90;;;;;;;;;;5055446;28;20740;-67
2022/09/07 06:32:19;;;;;;;9.85;6.80;;;;;;;;;;5061481;28;20079;-68
2022/09/07 06:34:45;;;;;;;12.43;8.10;;;;;;;;;;5055987;28;20050;-67
2022/09/07 06:37:12;;;;;;;10.30;6.75;;;;;;;;;;5064454;28;20055;-68
2022/09/07 06:39:38;;;;;;;12.52;7.55;;;;;;;;;;5061535;28;20036;-68
2022/09/07 06:42:04;;;;;;;12.80;8.80;;;;;;;;;;5065006;28;20178;-68
2022/09/07 06:44:31;;;;;;;12.80;8.93;;;;;;;;;;5064064;28;20040;-68
2022/09/07 06:46:57;;;;;;;14.48;9.00;;;;;;;;;;5060709;28;20045;-67
2022/09/07 06:49:24;;;;;;;12.65;8.77;;;;;;;;;;5062847;28;20040;-67
2022/09/07 06:51:50;;;;;;;12.85;10.77;;;;;;;;;;5063275;28;20086;-68
2022/09/07 06:54:16;;;;;;;14.98;11.60;;;;;;;;;;5063506;28;20056;-68
2022/09/07 06:56:43;;;;;;;16.65;12.00;;;;;;;;;;5064460;28;20082;-68
2022/09/07 06:59:09;;;;;;;16.25;14.50;;;;;;;;;;5058322;28;20120;-67
2022/09/07 07:01:35;;;;;;;20.35;16.30;;;;;;;;;;5047816;28;20067;-68
2022/09/07 07:04:02;;;;;;;19.13;15.82;;;;;;;;;;5040906;28;20045;-67
2022/09/07 07:06:35;;;;;;;19.40;15.75;;;;;;;;;;5043637;28;20041;-67
2022/09/07 07:09:01;;;;;;;19.40;15.63;;;;;;;;;;5044191;28;20037;-67
2022/09/07 07:11:29;;;;;;;20.35;17.13;;;;;;;;;;5062528;28;20066;-67
2022/09/07 07:13:55;;;;;;;21.50;17.35;;;;;;;;;;5060708;28;20053;-68
2022/09/07 07:16:21;;;;;;;23.23;18.58;;;;;;;;;;5043677;28;20124;-68
2022/09/07 07:18:51;;;;;;;18.50;16.25;;;;;;;;;;5071902;28;20147;-68
2022/09/07 07:21:17;;;;;;;19.38;17.20;;;;;;;;;;5049779;28;20452;-67
2022/09/07 07:23:44;;;;;;;22.23;17.40;;;;;;;;;;5046832;28;20148;-68
2022/09/07 07:26:12;;;;;;;20.63;16.88;;;;;;;;;;5062727;28;20064;-68
2022/09/07 07:28:38;;;;;;;23.75;18.67;;;;;;;;;;5064646;28;20032;-67
2022/09/07 07:31:05;;;;;;;24.75;19.58;;;;;;;;;;5057813;28;20490;-68
2022/09/07 07:33:32;;;;;;;24.63;19.30;;;;;;;;;;5060265;28;20323;-69
2022/09/07 07:36:08;;;;;;;26.92;20.17;;;;;;;;;;5054207;28;20146;-67
2022/09/07 07:38:35;;;;;;;24.88;20.23;;;;;;;;;;5062354;28;20072;-68
2022/09/07 07:41:01;;;;;;;23.48;20.30;;;;;;;;;;5063745;28;20431;-67
2022/09/07 07:43:27;;;;;;;22.83;19.95;;;;;;;;;;5059409;28;20041;-69
2022/09/07 07:45:54;;;;;;;22.02;19.73;;;;;;;;;;5060742;28;20041;-68
2022/09/07 07:48:21;;;;;;;23.52;20.00;;;;;;;;;;5060803;28;20113;-69
2022/09/07 07:51:02;;;;;;;22.50;18.63;;;;;;;;;;5064879;28;20037;-68
2022/09/07 07:53:29;;;;;;;22.35;20.05;;;;;;;;;;5058394;28;20056;-68
2022/09/07 07:55:59;;;;;;;24.08;20.23;;;;;;;;;;5062880;28;20128;-68
2022/09/07 07:58:26;;;;;;;22.63;18.33;;;;;;;;;;5055866;28;20044;-68
2022/09/07 08:00:53;;;;;;;21.90;17.90;;;;;;;;;;5053126;28;20082;-68
2022/09/07 08:03:19;;;;;;;21.90;18.05;;;;;;;;;;5056590;28;20053;-68
2022/09/07 08:05:46;;;;;;;21.55;17.83;;;;;;;;;;5061530;28;20052;-68
2022/09/07 08:08:12;;;;;;;20.58;16.98;;;;;;;;;;5062859;28;20399;-68
2022/09/07 08:10:38;;;;;;;20.75;17.88;;;;;;;;;;5061441;28;20037;-68
2022/09/07 08:13:04;;;;;;;21.02;17.30;;;;;;;;;;5056514;28;20044;-68
2022/09/07 08:15:30;;;;;;;19.35;16.30;;;;;;;;;;5060646;28;20147;-68
2022/09/07 08:17:57;;;;;;;22.35;17.13;;;;;;;;;;5062984;28;20310;-67
2022/09/07 08:20:23;;;;;;;19.88;16.23;;;;;;;;;;5056755;28;20508;-68
2022/09/07 08:22:49;;;;;;;21.20;17.67;;;;;;;;;;5060553;28;20044;-68
2022/09/07 08:25:16;;;;;;;19.15;17.15;;;;;;;;;;5058639;28;20092;-67
2022/09/07 08:27:42;;;;;;;21.60;15.90;;;;;;;;;;5060056;28;20048;-69
2022/09/07 08:30:09;;;;;;;18.63;14.13;;;;;;;;;;5043040;28;20488;-68
2022/09/07 08:32:35;;;;;;;17.98;16.10;;;;;;;;;;5060632;28;20040;-68
2022/09/07 08:35:02;;;;;;;17.50;15.43;;;;;;;;;;5062912;28;20051;-68
2022/09/07 08:37:28;;;;;;;15.38;13.77;;;;;;;;;;5060863;28;20429;-68
2022/09/07 08:39:54;;;;;;;15.15;13.57;;;;;;;;;;5058383;28;20037;-66
2022/09/07 08:42:22;;;;;;;18.95;14.35;;;;;;;;;;5056657;28;20132;-66
2022/09/07 08:44:50;;;;;;;15.57;13.98;;;;;;;;;;5058927;28;20048;-66
2022/09/07 08:47:32;;;;;;;17.42;14.73;;;;;;;;;;5056627;28;20055;-66
2022/09/07 08:50:05;;;;;;;15.93;14.35;;;;;;;;;;5060643;28;20094;-67
2022/09/07 08:52:47;;;;;;;19.35;14.82;;;;;;;;;;5059644;28;20429;-67
2022/09/07 08:55:13;;;;;;;15.68;14.05;;;;;;;;;;5061380;28;20055;-67
2022/09/07 08:57:41;;;;;;;16.55;14.23;;;;;;;;;;5058503;28;20070;-67
2022/09/07 09:00:10;;;;;;;15.55;13.73;;;;;;;;;;5062846;28;20045;-67
2022/09/07 09:02:37;;;;;;;15.52;13.90;;;;;;;;;;5043755;28;20087;-67
2022/09/07 09:05:05;;;;;;;15.77;14.07;;;;;;;;;;5062376;28;20079;-66
2022/09/07 09:07:37;;;;;;;15.85;13.77;;;;;;;;;;5059020;28;20485;-67
2022/09/07 09:10:23;;;;;;;14.02;12.57;;;;;;;;;;5059895;28;20040;-67
2022/09/07 09:12:54;;;;;;;17.70;13.18;;;;;;;;;;5053082;28;20326;-66
2022/09/07 09:15:29;;;;;;;12.93;11.57;;;;;;;;;;5059796;28;20057;-66
2022/09/07 09:17:58;;;;;;;11.93;10.63;;;;;;;;;;5061435;28;20057;-67
2022/09/07 09:20:29;;;;;;;13.80;9.55;;;;;;;;;;5055875;28;20116;-66
2022/09/07 09:23:01;;;;;;;10.48;8.50;;;;;;;;;;5063157;28;20063;-67
2022/09/07 09:25:35;;;;;;;9.95;8.77;;;;;;;;;;5059738;28;20062;-67
2022/09/07 09:28:01;;;;;;;11.23;8.32;;;;;;;;;;5059633;28;20084;-66
2022/09/07 09:30:28;;;;;;;9.48;7.40;;;;;;;;;;5060779;28;20047;-66
2022/09/07 09:33:12;;;;;;;9.55;7.97;;;;;;;;;;5059511;28;20087;-67
2022/09/07 09:35:39;;;;;;;10.52;7.25;;;;;;;;;;5048670;28;20044;-67
2022/09/07 09:38:05;;;;;;;9.77;6.90;;;;;;;;;;5057620;28;20029;-65
2022/09/07 09:40:31;;;;;;;8.80;5.70;;;;;;;;;;5059056;28;20045;-65
2022/09/07 09:42:59;;;;;;;7.68;6.22;;;;;;;;;;5061074;28;20095;-66
2022/09/07 09:45:26;;;;;;;7.43;6.03;;;;;;;;;;5053079;28;20061;-66
2022/09/07 09:47:53;;;;;;;7.55;5.72;;;;;;;;;;5063253;28;20044;-66
2022/09/07 09:50:23;;;;;;;6.38;4.45;;;;;;;;;;5066484;28;20039;-66
2022/09/07 09:52:50;;;;;;;5.35;3.47;;;;;;;;;;5065649;28;20057;-66
2022/09/07 09:55:23;;;;;;;5.70;3.40;;;;;;;;;;5057361;28;20064;-66
2022/09/07 09:57:51;;;;;;;4.68;2.80;;;;;;;;;;5055615;28;20481;-67
2022/09/07 10:00:20;;;;;;;5.75;3.40;;;;;;;;;;5050842;28;20091;-67
2022/09/07 10:03:06;;;;;;;7.03;3.00;;;;;;;;;;5044743;28;20040;-66
2022/09/07 10:05:35;;;;;;;5.25;2.53;;;;;;;;;;5047810;28;20053;-66
2022/09/07 10:08:01;;;;;;;3.92;2.33;;;;;;;;;;5051148;28;20451;-66
2022/09/07 10:10:28;;;;;;;4.40;2.15;;;;;;;;;;5049131;28;20040;-67
2022/09/07 10:12:55;;;;;;;4.03;2.25;;;;;;;;;;5049579;28;20080;-66
2022/09/07 10:15:27;;;;;;;6.43;2.20;;;;;;;;;;5040531;28;20055;-67
2022/09/07 10:17:53;;;;;;;5.40;2.50;;;;;;;;;;5042570;28;20052;-67
2022/09/07 10:20:22;;;;;;;6.88;2.83;;;;;;;;;;5040331;28;20076;-67
2022/09/07 10:22:49;;;;;;;6.32;2.17;;;;;;;;;;5039212;28;20132;-68
2022/09/07 10:25:30;;;;;;;4.45;2.40;;;;;;;;;;5039907;28;20052;-68
2022/09/07 10:28:13;;;;;;;4.68;2.10;;;;;;;;;;5040785;28;20110;-69
2022/09/07 10:30:39;;;;;;;4.07;2.13;;;;;;;;;;5048279;28;20093;-68
2022/09/07 10:33:09;;;;;;;5.05;2.25;;;;;;;;;;5042332;28;20053;-69
2022/09/07 10:35:42;;;;;;;3.95;2.03;;;;;;;;;;5041920;28;20033;-68
2022/09/07 10:38:14;;;;;;;3.55;1.70;;;;;;;;;;5039980;28;20067;-67
2022/09/07 10:40:43;;;;;;;5.75;2.00;;;;;;;;;;5051858;28;20116;-68
2022/09/07 10:43:14;;;;;;;5.18;2.05;;;;;;;;;;5055437;28;20072;-67
2022/09/07 10:45:40;;;;;;;3.33;1.67;;;;;;;;;;5055420;28;20093;-68
2022/09/07 10:48:11;;;;;;;4.60;1.45;;;;;;;;;;5061722;28;20059;-68
2022/09/07 10:50:38;;;;;;;3.90;1.70;;;;;;;;;;5056952;28;20063;-68
2022/09/07 10:53:13;;;;;;;2.90;1.20;;;;;;;;;;5051887;28;20535;-67
2022/09/07 10:55:41;;;;;;;6.85;1.40;;;;;;;;;;5059983;28;20169;-69
2022/09/07 10:58:21;;;;;;;2.85;1.50;;;;;;;;;;5054336;28;20132;-68
2022/09/07 11:00:57;;;;;;;3.40;1.60;;;;;;;;;;5056957;28;20086;-68
2022/09/07 11:03:30;;;;;;;4.57;1.83;;;;;;;;;;5054824;28;20056;-68
2022/09/07 11:06:07;;;;;;;4.43;1.55;;;;;;;;;;5055021;28;20477;-68
2022/09/07 11:08:41;;;;;;;4.05;1.65;;;;;;;;;;5082454;28;20052;-68
2022/09/07 11:11:16;;;;;;;3.75;1.60;;;;;;;;;;5054444;28;20060;-68
2022/09/07 11:13:43;;;;;;;4.30;1.60;;;;;;;;;;5059081;28;20053;-68
2022/09/07 11:16:15;;;;;;;2.30;0.93;;;;;;;;;;5053591;28;20082;-68
2022/09/07 11:18:50;;;;;;;4.03;1.30;;;;;;;;;;5055818;28;20037;-68
2022/09/07 11:21:17;;;;;;;2.47;1.00;;;;;;;;;;5058494;28;20052;-68
2022/09/07 11:23:46;;;;;;;2.35;0.80;;;;;;;;;;5053654;28;20415;-68
2022/09/07 11:26:14;;;;;;;3.03;1.10;;;;;;;;;;5046829;28;20044;-68
2022/09/07 11:28:43;;;;;;;3.22;1.13;;;;;;;;;;5063324;28;20032;-68
2022/09/07 11:31:15;;;;;;;2.05;1.00;;;;;;;;;;5047843;28;20045;-68
2022/09/07 11:33:53;;;;;;;2.35;1.10;;;;;;;;;;5064271;28;20523;-68
2022/09/07 11:36:20;;;;;;;3.40;1.30;;;;;;;;;;5065404;28;20479;-68
2022/09/07 11:38:50;;;;;;;3.75;0.98;;;;;;;;;;5062926;28;20123;-69
2022/09/07 11:41:22;;;;;;;2.80;1.05;;;;;;;;;;5062958;28;20562;-69
2022/09/07 11:43:57;;;;;;;3.40;1.20;;;;;;;;;;5065704;28;20078;-69
2022/09/07 11:46:30;;;;;;;5.20;1.25;;;;;;;;;;5057820;28;20041;-69
2022/09/07 11:48:57;;;;;;;5.10;1.35;;;;;;;;;;5062169;28;20045;-70
2022/09/07 11:51:26;;;;;;;3.88;1.00;;;;;;;;;;5061658;28;20476;-69
2022/09/07 11:53:54;;;;;;;5.63;1.13;;;;;;;;;;5053974;28;20411;-69
2022/09/07 11:56:24;;;;;;;2.67;1.00;;;;;;;;;;5060981;28;20094;-68
2022/09/07 11:59:12;;;;;;;3.60;1.10;;;;;;;;;;5058442;28;20178;-68
2022/09/07 12:01:45;;;;;;;3.35;1.10;;;;;;;;;;5062160;28;20105;-69
2022/09/07 12:04:14;;;;;;;2.00;0.90;;;;;;;;;;5059954;28;20090;-69
2022/09/07 12:06:43;;;;;;;4.18;1.20;;;;;;;;;;5055772;28;20103;-70
2022/09/07 12:09:15;;;;;;;4.00;1.27;;;;;;;;;;5056706;28;20036;-69
2022/09/07 12:12:00;;;;;;;2.13;1.00;;;;;;;;;;5061439;28;20049;-69
2022/09/07 12:14:33;;;;;;;3.85;1.00;;;;;;;;;;5059852;28;20458;-69
2022/09/07 12:17:00;;;;;;;2.50;0.80;;;;;;;;;;5056268;28;20541;-69
2022/09/07 12:19:27;;;;;;;2.67;0.85;;;;;;;;;;5062133;28;20040;-69
2022/09/07 12:21:53;;;;;;;3.03;1.20;;;;;;;;;;5058933;28;20045;-69
2022/09/07 12:24:42;;;;;;;3.08;1.10;;;;;;;;;;5055173;28;20048;-69
2022/09/07 12:27:11;;;;;;;2.30;1.05;;;;;;;;;;5052939;28;20117;-70
2022/09/07 12:29:37;;;;;;;3.15;1.10;;;;;;;;;;5064193;28;20074;-69
2022/09/07 12:32:04;;;;;;;3.22;1.20;;;;;;;;;;5066782;28;20042;-69
2022/09/07 12:34:30;;;;;;;3.63;1.00;;;;;;;;;;5062744;28;20103;-69
2022/09/07 12:37:02;;;;;;;2.85;1.15;;;;;;;;;;5061679;28;20396;-70
2022/09/07 12:39:29;;;;;;;2.75;1.00;;;;;;;;;;5060909;28;20506;-69
2022/09/07 12:42:05;;;;;;;3.40;1.20;;;;;;;;;;5049019;28;20032;-69
2022/09/07 12:44:32;;;;;;;4.00;2.03;;;;;;;;;;5045838;28;20110;-69
2022/09/07 12:47:00;;;;;;;2.63;1.10;;;;;;;;;;5048353;28;20451;-69
2022/09/07 12:49:33;;;;;;;5.35;1.20;;;;;;;;;;5050414;28;20388;-70
2022/09/07 12:52:12;;;;;;;3.97;1.50;;;;;;;;;;5051184;28;20053;-69
2022/09/07 12:54:46;;;;;;;3.75;1.20;;;;;;;;;;5052959;28;20213;-70
2022/09/07 12:57:23;;;;;;;3.40;1.40;;;;;;;;;;5042330;28;20492;-70
2022/09/07 12:59:57;;;;;;;3.78;1.63;;;;;;;;;;5053891;28;20032;-70
2022/09/07 13:02:41;;;;;;;4.40;1.40;;;;;;;;;;5060913;28;20055;-70
2022/09/07 13:05:15;;;;;;;3.75;1.20;;;;;;;;;;5051747;28;20037;-70
2022/09/07 13:08:07;;;;;;;4.68;1.33;;;;;;;;;;5052803;28;20097;-72
2022/09/07 13:10:35;;;;;;;4.10;1.70;;;;;;;;;;5031108;28;20390;-70
2022/09/07 13:13:04;;;;;;;3.55;1.42;;;;;;;;;;5035799;28;20479;-69
2022/09/07 13:15:32;;;;;;;3.10;1.27;;;;;;;;;;5038698;28;20041;-69
2022/09/07 13:17:58;;;;;;;3.20;1.77;;;;;;;;;;5040303;28;20055;-69
2022/09/07 13:20:30;;;;;;;3.42;1.35;;;;;;;;;;5045826;28;20503;-69
2022/09/07 13:23:09;;;;;;;3.33;1.45;;;;;;;;;;5046213;28;20045;-69
2022/09/07 13:25:36;;;;;;;4.60;1.40;;;;;;;;;;5039558;28;20689;-69
2022/09/07 13:28:05;;;;;;;4.93;1.83;;;;;;;;;;5051938;28;20337;-70
2022/09/07 13:30:34;;;;;;;3.38;1.50;;;;;;;;;;5046373;28;20085;-69
2022/09/07 13:33:19;;;;;;;4.82;1.30;;;;;;;;;;5048459;28;20041;-69
2022/09/07 13:35:45;;;;;;;5.88;1.70;;;;;;;;;;5052408;28;20040;-69
2022/09/07 13:38:13;;;;;;;2.75;1.10;;;;;;;;;;5053897;28;21392;-69
2022/09/07 13:40:44;;;;;;;3.20;1.52;;;;;;;;;;5047208;28;20044;-69
2022/09/07 13:43:16;;;;;;;3.95;1.65;;;;;;;;;;5040518;28;20167;-69
2022/09/07 13:45:58;;;;;;;3.17;1.52;;;;;;;;;;5045984;28;20046;-69
2022/09/07 13:48:36;;;;;;;3.78;1.50;;;;;;;;;;5050083;28;20507;-68
2022/09/07 13:51:09;;;;;;;2.72;1.30;;;;;;;;;;5046614;28;20045;-68
2022/09/07 13:53:38;;;;;;;3.20;1.92;;;;;;;;;;5060395;28;20056;-69
2022/09/07 13:56:04;;;;;;;3.80;1.77;;;;;;;;;;5041392;28;20052;-69
2022/09/07 13:58:37;;;;;;;3.85;1.40;;;;;;;;;;5044129;28;20067;-68
2022/09/07 14:01:05;;;;;;;3.83;1.25;;;;;;;;;;5041149;28;20044;-69
2022/09/07 14:03:38;;;;;;;4.07;1.48;;;;;;;;;;5045765;28;20045;-69
2022/09/07 14:06:20;;;;;;;4.32;1.30;;;;;;;;;;5047211;28;20040;-69
2022/09/07 14:08:48;;;;;;;3.40;1.42;;;;;;;;;;5045360;28;20052;-69
2022/09/07 14:11:17;;;;;;;4.82;1.50;;;;;;;;;;5045736;28;20445;-69
2022/09/07 14:13:43;;;;;;;3.45;1.42;;;;;;;;;;5044447;28;20077;-69
2022/09/07 14:16:10;;;;;;;4.15;1.80;;;;;;;;;;5048035;28;20060;-69
2022/09/07 14:18:36;;;;;;;3.92;1.70;;;;;;;;;;5045698;28;20205;-69
2022/09/07 14:21:04;;;;;;;3.17;1.50;;;;;;;;;;5046934;28;20041;-69
2022/09/07 14:23:31;;;;;;;5.30;1.50;;;;;;;;;;5051819;28;20044;-68
2022/09/07 14:26:16;;;;;;;2.67;1.23;;;;;;;;;;5039718;28;20048;-69
2022/09/07 14:28:44;;;;;;;3.03;1.10;;;;;;;;;;5040448;28;20135;-69
2022/09/07 14:31:11;;;;;;;3.00;1.20;;;;;;;;;;5039647;28;20049;-69
2022/09/07 14:33:38;;;;;;;3.58;1.20;;;;;;;;;;5034862;28;20047;-68
2022/09/07 14:36:04;;;;;;;3.47;1.20;;;;;;;;;;5039680;28;20049;-69
2022/09/07 14:38:32;;;;;;;3.63;1.30;;;;;;;;;;5037736;28;20037;-69
2022/09/07 14:41:03;;;;;;;4.82;1.33;;;;;;;;;;5037399;28;20071;-69
2022/09/07 14:43:32;;;;;;;4.30;0.82;;;;;;;;;;5032799;28;20053;-69
2022/09/07 14:46:15;;;;;;;3.47;1.55;;;;;;;;;;5037876;28;20049;-69